sensor_id;sensor_type;location;lat;lon;timestamp;pressure;altitude;pressure_sealevel;temperature;humidity
60725;BME280;59881;36.722;-4.462;2023-07-31T00:00:14;100914.72;;;23.48;94.32
60725;BME280;59881;36.722;-4.462;2023-07-31T00:02:40;100725.06;;;22.32;93.80
60725;BME280;59881;36.722;-4.462;2023-07-31T00:05:08;100912.88;;;23.49;94.00
60725;BME280;59881;36.722;-4.462;2023-07-31T00:07:34;100794.56;;;22.73;93.39
60725;BME280;59881;36.722;-4.462;2023-07-31T00:09:59;100876.47;;;23.23;93.08
60725;BME280;59881;36.722;-4.462;2023-07-31T00:12:25;100314.84;;;19.83;92.59
60725;BME280;59881;36.722;-4.462;2023-07-31T00:14:50;100906.09;;;23.38;92.90
60725;BME280;59881;36.722;-4.462;2023-07-31T00:17:17;100844.22;;;23.00;92.76
60725;BME280;59881;36.722;-4.462;2023-07-31T00:19:43;100818.31;;;22.84;92.71
60725;BME280;59881;36.722;-4.462;2023-07-31T00:22:08;100736.09;;;22.06;92.50
60725;BME280;59881;36.722;-4.462;2023-07-31T00:24:34;100915.16;;;23.37;92.19
60725;BME280;59881;36.722;-4.462;2023-07-31T00:27:00;100703.13;;;21.89;92.08
60725;BME280;59881;36.722;-4.462;2023-07-31T00:29:25;100906.66;;;23.33;92.04
60725;BME280;59881;36.722;-4.462;2023-07-31T00:31:51;100789.44;;;22.63;92.15
60725;BME280;59881;36.722;-4.462;2023-07-31T00:34:16;100643.63;;;21.62;91.67
60725;BME280;59881;36.722;-4.462;2023-07-31T00:36:42;100899.47;;;23.26;91.75
60725;BME280;59881;36.722;-4.462;2023-07-31T00:39:07;100919.31;;;23.25;91.95
60725;BME280;59881;36.722;-4.462;2023-07-31T00:41:33;100901.50;;;23.24;91.72
60725;BME280;59881;36.722;-4.462;2023-07-31T00:43:58;100931.91;;;23.24;91.82
60725;BME280;59881;36.722;-4.462;2023-07-31T00:46:24;100748.84;;;22.35;92.10
60725;BME280;59881;36.722;-4.462;2023-07-31T00:48:50;100897.81;;;23.25;92.21
60725;BME280;59881;36.722;-4.462;2023-07-31T00:51:15;100892.91;;;23.28;92.73
60725;BME280;59881;36.722;-4.462;2023-07-31T00:53:42;100777.09;;;22.54;92.57
60725;BME280;59881;36.722;-4.462;2023-07-31T00:56:08;100934.03;;;23.29;92.60
60725;BME280;59881;36.722;-4.462;2023-07-31T00:58:33;100909.19;;;23.27;92.37
60725;BME280;59881;36.722;-4.462;2023-07-31T01:00:59;100725.94;;;22.24;92.51
60725;BME280;59881;36.722;-4.462;2023-07-31T01:03:25;100889.91;;;23.23;92.57
60725;BME280;59881;36.722;-4.462;2023-07-31T01:08:49;100879.50;;;23.20;93.16
60725;BME280;59881;36.722;-4.462;2023-07-31T01:11:43;100837.22;;;22.91;93.14
60725;BME280;59881;36.722;-4.462;2023-07-31T01:14:12;100498.59;;;20.86;92.86
60725;BME280;59881;36.722;-4.462;2023-07-31T01:16:37;100874.69;;;23.16;93.45
60725;BME280;59881;36.722;-4.462;2023-07-31T01:19:03;100873.84;;;23.15;93.66
60725;BME280;59881;36.722;-4.462;2023-07-31T01:27:04;100866.81;;;23.14;93.72
60725;BME280;59881;36.722;-4.462;2023-07-31T01:32:21;100784.53;;;22.67;93.71
60725;BME280;59881;36.722;-4.462;2023-07-31T01:34:48;100870.63;;;23.20;93.71
60725;BME280;59881;36.722;-4.462;2023-07-31T01:37:14;100671.84;;;21.42;93.40
60725;BME280;59881;36.722;-4.462;2023-07-31T01:39:39;100716.47;;;21.74;93.39
60725;BME280;59881;36.722;-4.462;2023-07-31T01:42:05;100869.69;;;23.12;93.65
60725;BME280;59881;36.722;-4.462;2023-07-31T01:44:31;100868.19;;;23.10;93.67
60725;BME280;59881;36.722;-4.462;2023-07-31T01:46:57;100766.88;;;22.49;93.31
60725;BME280;59881;36.722;-4.462;2023-07-31T01:49:25;100887.72;;;23.04;93.75
60725;BME280;59881;36.722;-4.462;2023-07-31T01:51:51;100696.19;;;22.03;94.12
60725;BME280;59881;36.722;-4.462;2023-07-31T01:54:16;100905.69;;;23.03;94.44
60725;BME280;59881;36.722;-4.462;2023-07-31T01:56:42;100464.06;;;20.60;94.03
60725;BME280;59881;36.722;-4.462;2023-07-31T01:59:07;100858.97;;;23.04;94.66
60725;BME280;59881;36.722;-4.462;2023-07-31T02:01:33;100792.94;;;22.64;94.29
60725;BME280;59881;36.722;-4.462;2023-07-31T02:03:59;100787.63;;;22.56;94.42
60725;BME280;59881;36.722;-4.462;2023-07-31T02:06:25;100859.69;;;22.98;94.54
60725;BME280;59881;36.722;-4.462;2023-07-31T02:08:52;100858.00;;;22.97;94.91
60725;BME280;59881;36.722;-4.462;2023-07-31T02:11:18;100853.66;;;22.96;95.07
60725;BME280;59881;36.722;-4.462;2023-07-31T02:13:43;100906.53;;;22.96;94.66
60725;BME280;59881;36.722;-4.462;2023-07-31T02:16:09;100899.50;;;22.94;94.54
60725;BME280;59881;36.722;-4.462;2023-07-31T02:18:34;100911.25;;;22.93;94.74
60725;BME280;59881;36.722;-4.462;2023-07-31T02:21:00;100857.50;;;22.93;94.55
60725;BME280;59881;36.722;-4.462;2023-07-31T02:23:26;100858.53;;;22.92;94.34
60725;BME280;59881;36.722;-4.462;2023-07-31T02:25:51;100854.19;;;22.91;93.98
60725;BME280;59881;36.722;-4.462;2023-07-31T02:28:17;100014.91;;;17.65;93.01
60725;BME280;59881;36.722;-4.462;2023-07-31T02:30:46;100617.94;;;21.37;92.98
60725;BME280;59881;36.722;-4.462;2023-07-31T02:33:11;100862.25;;;22.91;92.96
60725;BME280;59881;36.722;-4.462;2023-07-31T02:35:37;100488.66;;;20.56;92.10
60725;BME280;59881;36.722;-4.462;2023-07-31T02:38:03;100716.81;;;22.02;91.73
60725;BME280;59881;36.722;-4.462;2023-07-31T02:40:28;100857.06;;;22.90;91.72
60725;BME280;59881;36.722;-4.462;2023-07-31T02:42:57;100852.50;;;22.90;91.29
60725;BME280;59881;36.722;-4.462;2023-07-31T02:45:23;100505.66;;;20.79;91.08
60725;BME280;59881;36.722;-4.462;2023-07-31T02:47:49;100569.84;;;20.96;91.04
60725;BME280;59881;36.722;-4.462;2023-07-31T02:50:14;100599.34;;;21.35;90.88
60725;BME280;59881;36.722;-4.462;2023-07-31T02:52:40;100851.19;;;22.86;90.95
60725;BME280;59881;36.722;-4.462;2023-07-31T02:55:06;100790.50;;;22.54;90.64
60725;BME280;59881;36.722;-4.462;2023-07-31T02:57:32;100746.44;;;22.09;90.69
60725;BME280;59881;36.722;-4.462;2023-07-31T02:59:57;100841.00;;;22.82;90.60
60725;BME280;59881;36.722;-4.462;2023-07-31T03:02:23;100583.28;;;21.27;90.54
60725;BME280;59881;36.722;-4.462;2023-07-31T03:04:48;100639.88;;;21.32;91.20
60725;BME280;59881;36.722;-4.462;2023-07-31T03:07:14;100110.94;;;18.38;90.63
60725;BME280;59881;36.722;-4.462;2023-07-31T03:09:39;100831.56;;;22.86;91.37
60725;BME280;59881;36.722;-4.462;2023-07-31T03:12:06;100883.63;;;22.85;91.43
60725;BME280;59881;36.722;-4.462;2023-07-31T03:14:31;100786.31;;;22.51;91.19
60725;BME280;59881;36.722;-4.462;2023-07-31T03:16:57;100302.38;;;19.59;91.07
60725;BME280;59881;36.722;-4.462;2023-07-31T03:19:23;100756.41;;;22.31;91.30
60725;BME280;59881;36.722;-4.462;2023-07-31T03:21:49;100837.66;;;22.80;91.43
60725;BME280;59881;36.722;-4.462;2023-07-31T03:24:14;100341.59;;;19.75;91.22
60725;BME280;59881;36.722;-4.462;2023-07-31T03:26:40;100477.84;;;20.24;91.44
60725;BME280;59881;36.722;-4.462;2023-07-31T03:29:07;100832.63;;;22.77;92.08
60725;BME280;59881;36.722;-4.462;2023-07-31T03:31:33;100845.25;;;22.76;92.25
60725;BME280;59881;36.722;-4.462;2023-07-31T03:33:58;100840.88;;;22.75;92.32
60725;BME280;59881;36.722;-4.462;2023-07-31T03:36:24;100842.56;;;22.76;92.55
60725;BME280;59881;36.722;-4.462;2023-07-31T03:38:51;100847.72;;;22.78;92.61
60725;BME280;59881;36.722;-4.462;2023-07-31T03:41:17;100839.50;;;22.79;92.59
60725;BME280;59881;36.722;-4.462;2023-07-31T03:43:42;100726.22;;;21.98;92.33
60725;BME280;59881;36.722;-4.462;2023-07-31T03:46:08;100584.84;;;21.21;92.37
60725;BME280;59881;36.722;-4.462;2023-07-31T03:48:34;100664.00;;;21.72;92.60
60725;BME280;59881;36.722;-4.462;2023-07-31T03:50:59;100831.28;;;22.81;92.93
60725;BME280;59881;36.722;-4.462;2023-07-31T03:53:24;100832.94;;;22.82;92.92
60725;BME280;59881;36.722;-4.462;2023-07-31T03:55:50;100492.81;;;20.75;92.52
60725;BME280;59881;36.722;-4.462;2023-07-31T03:58:16;100592.13;;;21.36;92.63
60725;BME280;59881;36.722;-4.462;2023-07-31T04:00:41;100836.44;;;22.82;92.36
60725;BME280;59881;36.722;-4.462;2023-07-31T04:03:07;100831.97;;;22.75;92.26
60725;BME280;59881;36.722;-4.462;2023-07-31T04:05:32;100846.34;;;22.82;91.92
60725;BME280;59881;36.722;-4.462;2023-07-31T04:07:58;100476.09;;;20.56;91.16
60725;BME280;59881;36.722;-4.462;2023-07-31T04:10:24;100847.94;;;22.76;90.94
60725;BME280;59881;36.722;-4.462;2023-07-31T04:12:49;100719.97;;;21.75;91.20
60725;BME280;59881;36.722;-4.462;2023-07-31T04:15:15;100795.75;;;22.47;90.97
60725;BME280;59881;36.722;-4.462;2023-07-31T04:17:40;100674.56;;;21.73;90.78
60725;BME280;59881;36.722;-4.462;2023-07-31T04:20:06;100706.06;;;22.02;90.71
60725;BME280;59881;36.722;-4.462;2023-07-31T04:22:32;100616.38;;;21.51;90.14
60725;BME280;59881;36.722;-4.462;2023-07-31T04:24:57;100857.34;;;22.95;90.04
60725;BME280;59881;36.722;-4.462;2023-07-31T04:27:23;100354.94;;;19.83;89.29
60725;BME280;59881;36.722;-4.462;2023-07-31T04:29:48;100859.09;;;22.88;89.66
60725;BME280;59881;36.722;-4.462;2023-07-31T04:32:14;100801.78;;;22.49;89.41
60725;BME280;59881;36.722;-4.462;2023-07-31T04:34:42;100347.63;;;19.69;89.26
60725;BME280;59881;36.722;-4.462;2023-07-31T04:37:07;100274.16;;;18.75;89.13
60725;BME280;59881;36.722;-4.462;2023-07-31T04:39:33;100856.09;;;22.83;88.95
60725;BME280;59881;36.722;-4.462;2023-07-31T04:41:58;100703.66;;;21.84;88.14
60725;BME280;59881;36.722;-4.462;2023-07-31T04:44:24;100570.75;;;20.72;87.45
60725;BME280;59881;36.722;-4.462;2023-07-31T04:46:49;100925.75;;;22.84;86.95
60725;BME280;59881;36.722;-4.462;2023-07-31T04:49:15;100452.91;;;20.40;85.32
60725;BME280;59881;36.722;-4.462;2023-07-31T04:51:40;100858.53;;;22.92;84.44
60725;BME280;59881;36.722;-4.462;2023-07-31T04:54:06;100936.28;;;22.94;82.89
60725;BME280;59881;36.722;-4.462;2023-07-31T04:56:31;100754.88;;;22.37;81.55
60725;BME280;59881;36.722;-4.462;2023-07-31T04:58:57;100798.69;;;22.61;80.93
60725;BME280;59881;36.722;-4.462;2023-07-31T05:01:22;100400.97;;;20.18;79.58
60725;BME280;59881;36.722;-4.462;2023-07-31T05:03:48;100848.28;;;22.96;79.07
60725;BME280;59881;36.722;-4.462;2023-07-31T05:06:13;100856.88;;;22.91;78.76
60725;BME280;59881;36.722;-4.462;2023-07-31T05:08:40;100572.00;;;21.08;78.24
60725;BME280;59881;36.722;-4.462;2023-07-31T05:11:06;100785.59;;;22.35;78.63
60725;BME280;59881;36.722;-4.462;2023-07-31T05:13:31;100880.09;;;22.84;78.80
60725;BME280;59881;36.722;-4.462;2023-07-31T05:15:57;100900.75;;;22.84;78.53
60725;BME280;59881;36.722;-4.462;2023-07-31T05:18:22;100557.56;;;20.70;78.18
60725;BME280;59881;36.722;-4.462;2023-07-31T05:20:48;100632.19;;;21.29;78.22
60725;BME280;59881;36.722;-4.462;2023-07-31T05:23:13;100875.75;;;22.83;78.87
60725;BME280;59881;36.722;-4.462;2023-07-31T05:25:39;100741.97;;;22.01;78.53
60725;BME280;59881;36.722;-4.462;2023-07-31T05:28:04;100827.56;;;22.59;78.66
60725;BME280;59881;36.722;-4.462;2023-07-31T05:30:30;100851.59;;;22.75;78.40
60725;BME280;59881;36.722;-4.462;2023-07-31T05:32:56;100113.91;;;18.03;78.26
60725;BME280;59881;36.722;-4.462;2023-07-31T05:35:21;100883.69;;;23.00;78.62
60725;BME280;59881;36.722;-4.462;2023-07-31T05:37:47;100890.69;;;23.09;78.82
60725;BME280;59881;36.722;-4.462;2023-07-31T05:40:12;100746.03;;;22.28;79.01
60725;BME280;59881;36.722;-4.462;2023-07-31T05:42:38;100660.69;;;22.01;79.58
60725;BME280;59881;36.722;-4.462;2023-07-31T05:45:05;100603.78;;;21.82;79.47
60725;BME280;59881;36.722;-4.462;2023-07-31T05:47:31;100698.34;;;23.44;78.76
60725;BME280;59881;36.722;-4.462;2023-07-31T05:49:56;100675.78;;;23.90;75.55
60725;BME280;59881;36.722;-4.462;2023-07-31T05:52:22;100798.38;;;25.36;70.54
60725;BME280;59881;36.722;-4.462;2023-07-31T05:54:47;100758.66;;;25.52;66.45
60725;BME280;59881;36.722;-4.462;2023-07-31T05:57:13;100646.44;;;25.57;63.80
60725;BME280;59881;36.722;-4.462;2023-07-31T05:59:38;100786.13;;;26.98;62.06
60725;BME280;59881;36.722;-4.462;2023-07-31T06:02:04;100567.88;;;26.07;58.44
60725;BME280;59881;36.722;-4.462;2023-07-31T06:04:30;100667.78;;;27.07;56.59
60725;BME280;59881;36.722;-4.462;2023-07-31T06:06:56;100918.25;;;29.12;54.69
60725;BME280;59881;36.722;-4.462;2023-07-31T06:09:21;100767.47;;;28.97;53.30
60725;BME280;59881;36.722;-4.462;2023-07-31T06:11:47;100668.34;;;28.83;51.73
60725;BME280;59881;36.722;-4.462;2023-07-31T06:14:12;100759.06;;;29.67;49.78
60725;BME280;59881;36.722;-4.462;2023-07-31T06:16:38;100561.16;;;29.17;48.57
60725;BME280;59881;36.722;-4.462;2023-07-31T06:19:03;100828.22;;;31.34;46.47
60725;BME280;59881;36.722;-4.462;2023-07-31T06:21:29;100830.59;;;31.78;45.59
60725;BME280;59881;36.722;-4.462;2023-07-31T06:23:55;100907.78;;;32.60;44.48
60725;BME280;59881;36.722;-4.462;2023-07-31T06:26:20;100906.91;;;33.16;43.33
60725;BME280;59881;36.722;-4.462;2023-07-31T06:28:46;100467.41;;;31.10;42.10
60725;BME280;59881;36.722;-4.462;2023-07-31T06:31:12;100735.66;;;33.07;40.92
60725;BME280;59881;36.722;-4.462;2023-07-31T06:33:37;100676.28;;;32.97;40.68
60725;BME280;59881;36.722;-4.462;2023-07-31T06:36:03;100525.03;;;32.32;40.25
60725;BME280;59881;36.722;-4.462;2023-07-31T06:38:28;100876.56;;;34.74;39.85
60725;BME280;59881;36.722;-4.462;2023-07-31T06:40:54;100899.50;;;34.95;38.71
60725;BME280;59881;36.722;-4.462;2023-07-31T06:43:19;100736.19;;;34.41;38.51
60725;BME280;59881;36.722;-4.462;2023-07-31T06:45:45;100699.06;;;34.50;37.60
60725;BME280;59881;36.722;-4.462;2023-07-31T06:48:11;100835.00;;;35.89;37.01
60725;BME280;59881;36.722;-4.462;2023-07-31T06:50:37;100632.56;;;34.82;36.20
60725;BME280;59881;36.722;-4.462;2023-07-31T06:53:02;100839.06;;;36.70;35.45
60725;BME280;59881;36.722;-4.462;2023-07-31T06:55:28;100713.91;;;36.43;34.90
60725;BME280;59881;36.722;-4.462;2023-07-31T06:57:54;100897.50;;;37.83;33.79
60725;BME280;59881;36.722;-4.462;2023-07-31T07:00:22;100810.22;;;37.34;33.34
60725;BME280;59881;36.722;-4.462;2023-07-31T07:02:48;100895.94;;;37.57;33.49
60725;BME280;59881;36.722;-4.462;2023-07-31T07:05:15;100734.50;;;36.46;33.60
60725;BME280;59881;36.722;-4.462;2023-07-31T07:07:41;100726.00;;;36.58;33.52
60725;BME280;59881;36.722;-4.462;2023-07-31T07:10:07;100909.16;;;38.30;32.74
60725;BME280;59881;36.722;-4.462;2023-07-31T07:12:33;100810.72;;;38.27;32.40
60725;BME280;59881;36.722;-4.462;2023-07-31T07:14:59;100879.03;;;38.99;31.85
60725;BME280;59881;36.722;-4.462;2023-07-31T07:17:25;100906.91;;;39.26;31.61
60725;BME280;59881;36.722;-4.462;2023-07-31T07:19:51;100889.22;;;38.59;31.78
60725;BME280;59881;36.722;-4.462;2023-07-31T07:22:17;100697.69;;;36.11;33.04
60725;BME280;59881;36.722;-4.462;2023-07-31T07:24:43;100738.50;;;35.92;33.97
60725;BME280;59881;36.722;-4.462;2023-07-31T07:27:09;100561.09;;;34.26;35.21
60725;BME280;59881;36.722;-4.462;2023-07-31T07:29:35;100930.00;;;36.21;35.47
60725;BME280;59881;36.722;-4.462;2023-07-31T07:32:00;100929.75;;;36.22;35.36
60725;BME280;59881;36.722;-4.462;2023-07-31T07:34:27;100939.84;;;36.80;34.61
60725;BME280;59881;36.722;-4.462;2023-07-31T07:36:53;100720.09;;;35.72;34.12
60725;BME280;59881;36.722;-4.462;2023-07-31T07:39:18;100960.22;;;37.45;34.16
60725;BME280;59881;36.722;-4.462;2023-07-31T07:41:44;100879.88;;;38.05;32.74
60725;BME280;59881;36.722;-4.462;2023-07-31T07:44:09;100934.72;;;38.96;31.67
60725;BME280;59881;36.722;-4.462;2023-07-31T07:46:35;100791.31;;;38.53;31.36
60725;BME280;59881;36.722;-4.462;2023-07-31T07:49:01;100729.31;;;38.21;31.38
60725;BME280;59881;36.722;-4.462;2023-07-31T07:51:26;100883.75;;;39.27;30.66
60725;BME280;59881;36.722;-4.462;2023-07-31T07:53:52;100899.69;;;39.89;30.34
60725;BME280;59881;36.722;-4.462;2023-07-31T07:56:17;100864.25;;;39.77;29.20
60725;BME280;59881;36.722;-4.462;2023-07-31T07:58:43;100800.34;;;39.22;29.72
60725;BME280;59881;36.722;-4.462;2023-07-31T08:01:08;100906.34;;;39.59;30.06
60725;BME280;59881;36.722;-4.462;2023-07-31T08:03:34;100914.31;;;39.31;31.04
60725;BME280;59881;36.722;-4.462;2023-07-31T08:06:00;100945.75;;;40.12;30.34
60725;BME280;59881;36.722;-4.462;2023-07-31T08:08:28;100931.50;;;40.29;29.98
60725;BME280;59881;36.722;-4.462;2023-07-31T08:10:54;100909.69;;;39.80;30.21
60725;BME280;59881;36.722;-4.462;2023-07-31T08:13:19;100974.75;;;39.81;30.71
60725;BME280;59881;36.722;-4.462;2023-07-31T08:15:45;100830.22;;;38.75;31.00
60725;BME280;59881;36.722;-4.462;2023-07-31T08:18:11;100958.19;;;40.34;30.41
60725;BME280;59881;36.722;-4.462;2023-07-31T08:20:37;100996.75;;;40.63;29.89
60725;BME280;59881;36.722;-4.462;2023-07-31T08:23:02;100927.88;;;40.53;30.15
60725;BME280;59881;36.722;-4.462;2023-07-31T08:25:29;100771.53;;;38.40;31.17
60725;BME280;59881;36.722;-4.462;2023-07-31T08:27:54;100921.84;;;38.31;32.38
60725;BME280;59881;36.722;-4.462;2023-07-31T08:30:21;100973.06;;;38.12;33.85
60725;BME280;59881;36.722;-4.462;2023-07-31T08:32:46;100966.72;;;38.21;34.01
60725;BME280;59881;36.722;-4.462;2023-07-31T08:35:12;100735.81;;;37.25;33.30
60725;BME280;59881;36.722;-4.462;2023-07-31T08:37:38;100753.34;;;37.35;33.44
60725;BME280;59881;36.722;-4.462;2023-07-31T08:40:05;100836.13;;;38.03;33.04
60725;BME280;59881;36.722;-4.462;2023-07-31T08:42:31;100969.81;;;38.69;33.17
60725;BME280;59881;36.722;-4.462;2023-07-31T08:44:59;100617.09;;;36.33;33.49
60725;BME280;59881;36.722;-4.462;2023-07-31T08:47:25;100816.44;;;37.76;33.27
60725;BME280;59881;36.722;-4.462;2023-07-31T08:49:52;101032.38;;;39.14;32.74
60725;BME280;59881;36.722;-4.462;2023-07-31T08:52:20;100978.50;;;39.95;31.91
60725;BME280;59881;36.722;-4.462;2023-07-31T08:54:45;100770.53;;;38.65;31.66
60725;BME280;59881;36.722;-4.462;2023-07-31T08:57:11;100932.63;;;39.51;32.12
60725;BME280;59881;36.722;-4.462;2023-07-31T08:59:38;100817.13;;;38.57;31.98
60725;BME280;59881;36.722;-4.462;2023-07-31T09:02:08;101038.63;;;39.64;32.15
60725;BME280;59881;36.722;-4.462;2023-07-31T09:04:33;101010.66;;;39.76;31.66
60725;BME280;59881;36.722;-4.462;2023-07-31T09:07:03;100986.00;;;39.60;32.42
60725;BME280;59881;36.722;-4.462;2023-07-31T09:09:31;100719.25;;;38.75;31.65
60725;BME280;59881;36.722;-4.462;2023-07-31T09:11:57;100982.69;;;41.35;30.18
60725;BME280;59881;36.722;-4.462;2023-07-31T09:14:25;100981.78;;;41.73;29.29
60725;BME280;59881;36.722;-4.462;2023-07-31T09:16:52;100979.47;;;41.94;29.12
60725;BME280;59881;36.722;-4.462;2023-07-31T09:19:45;100976.31;;;41.54;29.56
60725;BME280;59881;36.722;-4.462;2023-07-31T09:22:11;100941.81;;;41.19;29.85
60725;BME280;59881;36.722;-4.462;2023-07-31T09:24:37;100962.28;;;41.18;29.95
60725;BME280;59881;36.722;-4.462;2023-07-31T09:27:02;100977.06;;;41.73;29.68
60725;BME280;59881;36.722;-4.462;2023-07-31T09:29:28;100811.44;;;40.32;30.06
60725;BME280;59881;36.722;-4.462;2023-07-31T09:31:54;100853.00;;;40.17;30.52
60725;BME280;59881;36.722;-4.462;2023-07-31T09:34:28;100997.00;;;41.05;30.97
60725;BME280;59881;36.722;-4.462;2023-07-31T09:36:58;100808.94;;;39.44;31.10
60725;BME280;59881;36.722;-4.462;2023-07-31T09:39:26;100962.97;;;40.47;31.76
60725;BME280;59881;36.722;-4.462;2023-07-31T09:41:55;100880.00;;;40.20;31.28
60725;BME280;59881;36.722;-4.462;2023-07-31T09:44:21;100662.78;;;39.06;30.74
60725;BME280;59881;36.722;-4.462;2023-07-31T09:47:02;100982.56;;;41.27;30.50
60725;BME280;59881;36.722;-4.462;2023-07-31T09:49:28;100988.16;;;41.03;30.93
60725;BME280;59881;36.722;-4.462;2023-07-31T09:51:54;101016.78;;;40.93;31.65
60725;BME280;59881;36.722;-4.462;2023-07-31T09:54:20;100732.97;;;39.57;30.87
60725;BME280;59881;36.722;-4.462;2023-07-31T09:56:47;100922.38;;;40.72;31.01
60725;BME280;59881;36.722;-4.462;2023-07-31T09:59:15;101002.16;;;40.49;31.50
60725;BME280;59881;36.722;-4.462;2023-07-31T10:01:42;101004.34;;;39.75;32.89
60725;BME280;59881;36.722;-4.462;2023-07-31T10:04:09;101064.47;;;39.33;33.18
60725;BME280;59881;36.722;-4.462;2023-07-31T10:06:36;100633.97;;;37.06;33.95
60725;BME280;59881;36.722;-4.462;2023-07-31T10:09:05;101064.44;;;39.44;33.17
60725;BME280;59881;36.722;-4.462;2023-07-31T10:11:42;100944.91;;;38.50;32.51
60725;BME280;59881;36.722;-4.462;2023-07-31T10:14:10;101006.66;;;38.84;33.44
60725;BME280;59881;36.722;-4.462;2023-07-31T10:16:37;101029.72;;;38.98;33.01
60725;BME280;59881;36.722;-4.462;2023-07-31T10:19:04;101042.16;;;39.69;32.04
60725;BME280;59881;36.722;-4.462;2023-07-31T10:21:31;101004.97;;;39.27;33.02
60725;BME280;59881;36.722;-4.462;2023-07-31T10:24:04;101005.38;;;39.50;33.22
60725;BME280;59881;36.722;-4.462;2023-07-31T10:26:31;100991.59;;;40.57;31.53
60725;BME280;59881;36.722;-4.462;2023-07-31T10:28:58;100994.44;;;40.27;32.30
60725;BME280;59881;36.722;-4.462;2023-07-31T10:31:27;100963.03;;;39.36;32.50
60725;BME280;59881;36.722;-4.462;2023-07-31T10:33:54;100874.88;;;39.06;31.97
60725;BME280;59881;36.722;-4.462;2023-07-31T10:36:21;100983.72;;;40.88;30.93
60725;BME280;59881;36.722;-4.462;2023-07-31T10:38:49;100987.06;;;41.04;29.71
60725;BME280;59881;36.722;-4.462;2023-07-31T10:41:16;100880.78;;;40.44;28.92
60725;BME280;59881;36.722;-4.462;2023-07-31T10:43:42;100673.75;;;39.55;29.18
60725;BME280;59881;36.722;-4.462;2023-07-31T10:46:08;100982.59;;;41.60;28.87
60725;BME280;59881;36.722;-4.462;2023-07-31T10:48:35;100977.31;;;40.49;30.02
60725;BME280;59881;36.722;-4.462;2023-07-31T10:51:10;100986.34;;;37.68;33.39
60725;BME280;59881;36.722;-4.462;2023-07-31T10:53:38;100995.09;;;35.01;37.36
60725;BME280;59881;36.722;-4.462;2023-07-31T10:56:10;100997.78;;;33.29;41.85
60725;BME280;59881;36.722;-4.462;2023-07-31T10:58:44;100936.09;;;31.71;44.32
60725;BME280;59881;36.722;-4.462;2023-07-31T11:01:09;101004.22;;;31.41;45.78
60725;BME280;59881;36.722;-4.462;2023-07-31T11:03:48;100936.81;;;30.64;47.16
60725;BME280;59881;36.722;-4.462;2023-07-31T11:06:16;100799.38;;;29.27;47.10
60725;BME280;59881;36.722;-4.462;2023-07-31T11:08:43;101023.75;;;30.70;49.52
60725;BME280;59881;36.722;-4.462;2023-07-31T11:11:17;100916.84;;;30.40;49.98
60725;BME280;59881;36.722;-4.462;2023-07-31T11:13:47;100979.88;;;30.67;50.08
60725;BME280;59881;36.722;-4.462;2023-07-31T11:16:18;100985.53;;;30.65;51.45
60725;BME280;59881;36.722;-4.462;2023-07-31T11:18:45;100969.09;;;30.42;51.93
60725;BME280;59881;36.722;-4.462;2023-07-31T11:21:18;100978.00;;;30.30;51.73
60725;BME280;59881;36.722;-4.462;2023-07-31T11:23:48;100969.53;;;30.39;51.41
60725;BME280;59881;36.722;-4.462;2023-07-31T11:26:14;100954.38;;;30.49;50.51
60725;BME280;59881;36.722;-4.462;2023-07-31T11:28:40;100775.25;;;29.37;50.85
60725;BME280;59881;36.722;-4.462;2023-07-31T11:31:09;100962.47;;;30.38;50.10
60725;BME280;59881;36.722;-4.462;2023-07-31T11:33:35;100735.31;;;29.01;49.33
60725;BME280;59881;36.722;-4.462;2023-07-31T11:36:00;100521.16;;;27.57;50.08
60725;BME280;59881;36.722;-4.462;2023-07-31T11:41:04;100953.28;;;30.14;51.61
60725;BME280;59881;36.722;-4.462;2023-07-31T11:43:33;100950.81;;;30.30;51.91
60725;BME280;59881;36.722;-4.462;2023-07-31T11:45:59;100903.94;;;29.98;51.95
60725;BME280;59881;36.722;-4.462;2023-07-31T11:48:35;100714.06;;;28.73;52.16
60725;BME280;59881;36.722;-4.462;2023-07-31T11:51:04;100947.13;;;30.00;50.10
60725;BME280;59881;36.722;-4.462;2023-07-31T11:53:37;100631.69;;;27.92;50.51
60725;BME280;59881;36.722;-4.462;2023-07-31T11:56:04;101008.22;;;29.65;50.07
60725;BME280;59881;36.722;-4.462;2023-07-31T11:58:32;100947.47;;;29.60;52.53
60725;BME280;59881;36.722;-4.462;2023-07-31T12:00:59;100571.41;;;27.39;53.23
60725;BME280;59881;36.722;-4.462;2023-07-31T12:03:26;100917.13;;;29.44;53.59
60725;BME280;59881;36.722;-4.462;2023-07-31T12:05:53;100943.91;;;29.41;53.76
60725;BME280;59881;36.722;-4.462;2023-07-31T12:08:21;100940.63;;;29.32;54.60
60725;BME280;59881;36.722;-4.462;2023-07-31T12:10:50;100933.84;;;29.16;55.32
60725;BME280;59881;36.722;-4.462;2023-07-31T12:13:26;100935.09;;;29.07;57.32
60725;BME280;59881;36.722;-4.462;2023-07-31T12:15:59;100935.38;;;28.99;58.05
60725;BME280;59881;36.722;-4.462;2023-07-31T12:18:27;100935.56;;;29.04;59.16
60725;BME280;59881;36.722;-4.462;2023-07-31T12:21:02;100928.03;;;28.74;59.56
60725;BME280;59881;36.722;-4.462;2023-07-31T12:23:31;100656.00;;;26.75;57.97
60725;BME280;59881;36.722;-4.462;2023-07-31T12:26:12;100588.03;;;26.11;60.67
60725;BME280;59881;36.722;-4.462;2023-07-31T12:28:40;100944.03;;;28.24;62.80
60725;BME280;59881;36.722;-4.462;2023-07-31T12:31:06;100943.63;;;28.07;63.81
60725;BME280;59881;36.722;-4.462;2023-07-31T12:33:34;100653.28;;;26.35;63.23
60725;BME280;59881;36.722;-4.462;2023-07-31T12:36:03;100933.44;;;28.09;64.09
60725;BME280;59881;36.722;-4.462;2023-07-31T12:38:30;100923.00;;;28.13;63.74
60725;BME280;59881;36.722;-4.462;2023-07-31T12:40:55;100654.72;;;26.44;64.50
60725;BME280;59881;36.722;-4.462;2023-07-31T12:43:21;100932.13;;;28.25;64.58
60725;BME280;59881;36.722;-4.462;2023-07-31T12:45:46;100847.91;;;27.68;64.10
60725;BME280;59881;36.722;-4.462;2023-07-31T12:48:12;100920.50;;;28.18;65.00
60725;BME280;59881;36.722;-4.462;2023-07-31T12:50:38;100852.69;;;27.73;64.57